Time;durP1;ratioP1;P1;durP2;ratioP2;P2;SDS_P1;SDS_P2;PMS_P1;PMS_P2;Temp;Humidity;BMP_temperature;BMP_pressure;BME280_temperature;BME280_humidity;BME280_pressure;Samples;Min_cycle;Max_cycle;Signal;HPM_P1;HPM_P2
2021/04/02 00:02:09;;;;;;;12.07;4.00;;;11.90;99.90;;;;;;5010148;28;20031;-64
2021/04/02 00:04:36;;;;;;;9.82;3.15;;;11.90;99.90;;;;;;5025480;28;20087;-63
2021/04/02 00:07:07;;;;;;;5.32;3.67;;;12.00;99.90;;;;;;5017165;28;20049;-64
2021/04/02 00:09:34;;;;;;;10.80;4.13;;;12.00;99.90;;;;;;5005609;28;20038;-64
2021/04/02 00:12:00;;;;;;;10.57;3.65;;;12.00;99.90;;;;;;5008562;28;20022;-64
2021/04/02 00:14:26;;;;;;;9.38;3.83;;;12.00;99.90;;;;;;5002366;28;20030;-63
2021/04/02 00:16:52;;;;;;;7.43;3.70;;;12.00;99.90;;;;;;5005361;28;20391;-64
2021/04/02 00:19:17;;;;;;;10.52;3.47;;;11.90;99.90;;;;;;4995753;28;20511;-64
2021/04/02 00:21:43;;;;;;;8.55;3.75;;;11.80;99.90;;;;;;5002890;28;20097;-64
2021/04/02 00:24:09;;;;;;;8.75;3.95;;;11.90;99.90;;;;;;5000192;28;20659;-63
2021/04/02 00:26:35;;;;;;;9.50;3.72;;;12.00;99.90;;;;;;5007525;28;20040;-64
2021/04/02 00:29:00;;;;;;;7.85;3.78;;;12.00;99.90;;;;;;5000682;28;20041;-63
2021/04/02 00:31:26;;;;;;;12.40;4.07;;;11.90;99.90;;;;;;5008382;28;20053;-64
2021/04/02 00:33:52;;;;;;;9.75;4.32;;;11.90;99.90;;;;;;5000574;28;20081;-63
2021/04/02 00:36:18;;;;;;;9.65;3.88;;;11.80;99.90;;;;;;5005378;28;20022;-64
2021/04/02 00:38:44;;;;;;;9.63;4.32;;;11.90;99.90;;;;;;4999537;28;20045;-64
2021/04/02 00:41:13;;;;;;;11.10;3.58;;;11.90;99.90;;;;;;5003591;28;20023;-64
2021/04/02 00:43:45;;;;;;;9.27;3.50;;;11.80;99.90;;;;;;4998516;28;20515;-64
2021/04/02 00:46:11;;;;;;;10.13;3.95;;;11.90;99.90;;;;;;5004069;28;20034;-64
2021/04/02 00:48:40;;;;;;;11.30;4.18;;;12.00;99.90;;;;;;4999854;28;20062;-64
2021/04/02 00:51:24;;;;;;;7.30;3.70;;;11.80;99.90;;;;;;5016589;28;20018;-63
2021/04/02 00:53:50;;;;;;;6.65;3.25;;;11.70;99.90;;;;;;5011116;28;20044;-64
2021/04/02 00:56:16;;;;;;;8.25;3.53;;;11.90;99.90;;;;;;5019021;28;20088;-64
2021/04/02 00:58:42;;;;;;;6.10;3.83;;;11.90;99.90;;;;;;5011365;28;20026;-64
2021/04/02 01:01:11;;;;;;;14.13;4.03;;;11.90;99.90;;;;;;5009729;28;20712;-64
2021/04/02 01:03:38;;;;;;;11.38;3.75;;;11.90;99.90;;;;;;5008604;28;20175;-64
2021/04/02 01:06:16;;;;;;;10.27;4.28;;;11.80;99.90;;;;;;5019515;28;20053;-64
2021/04/02 01:08:42;;;;;;;16.30;4.05;;;11.90;99.90;;;;;;5002868;28;20407;-64
2021/04/02 01:11:15;;;;;;;16.95;3.95;;;11.90;99.90;;;;;;5019415;28;20030;-64
2021/04/02 01:13:45;;;;;;;11.98;4.20;;;11.70;99.90;;;;;;4997611;28;20014;-64
2021/04/02 01:16:18;;;;;;;10.90;4.03;;;11.90;99.90;;;;;;5018220;28;20085;-64
2021/04/02 01:19:03;;;;;;;13.90;3.85;;;12.00;99.90;;;;;;5007328;28;20018;-64
2021/04/02 01:21:58;;;;;;;33.42;5.55;;;11.80;99.90;;;;;;5021674;28;20502;-64
2021/04/02 01:24:23;;;;;;;22.88;4.88;;;11.70;99.90;;;;;;5004200;28;20114;-64
2021/04/02 01:27:10;;;;;;;25.30;4.82;;;11.80;99.90;;;;;;4994881;28;20165;-64
2021/04/02 01:29:42;;;;;;;26.83;5.13;;;11.90;99.90;;;;;;4991357;28;20070;-64
2021/04/02 01:32:10;;;;;;;23.05;5.10;;;11.90;99.90;;;;;;5003851;28;20033;-64
2021/04/02 01:34:41;;;;;;;28.48;5.07;;;11.80;99.90;;;;;;5003178;28;20065;-64
2021/04/02 01:37:12;;;;;;;16.17;4.30;;;11.80;99.90;;;;;;5003126;28;20026;-64
2021/04/02 01:39:42;;;;;;;12.63;4.72;;;11.70;99.90;;;;;;5001870;28;20025;-64
2021/04/02 01:42:12;;;;;;;13.95;4.70;;;11.60;99.90;;;;;;5003827;28;20030;-64
2021/04/02 01:44:40;;;;;;;9.02;4.30;;;11.60;99.90;;;;;;5000734;28;20028;-64
2021/04/02 01:47:08;;;;;;;10.63;4.47;;;11.60;99.90;;;;;;5003672;28;20570;-64
2021/04/02 01:49:35;;;;;;;9.27;4.28;;;11.60;99.90;;;;;;5000068;28;20044;-64
2021/04/02 01:52:02;;;;;;;13.23;4.07;;;11.50;99.90;;;;;;5003879;28;20030;-64
2021/04/02 01:54:29;;;;;;;15.88;4.85;;;11.60;99.90;;;;;;4994645;28;20023;-63
2021/04/02 01:56:56;;;;;;;13.32;4.00;;;11.60;99.90;;;;;;5009625;28;20104;-64
2021/04/02 01:59:24;;;;;;;15.23;4.68;;;11.60;99.90;;;;;;5024025;28;20026;-64
2021/04/02 02:01:50;;;;;;;18.33;5.20;;;11.70;99.90;;;;;;5015689;28;20018;-64
2021/04/02 02:04:20;;;;;;;13.82;4.68;;;11.80;99.90;;;;;;5012553;28;20040;-64
2021/04/02 02:06:49;;;;;;;11.43;4.55;;;11.60;99.90;;;;;;5021294;28;20451;-64
2021/04/02 02:09:18;;;;;;;9.00;4.30;;;11.70;99.90;;;;;;5017895;28;20028;-64
2021/04/02 02:11:47;;;;;;;10.05;4.25;;;11.70;99.90;;;;;;5020209;28;20082;-64
2021/04/02 02:14:17;;;;;;;8.65;4.32;;;11.50;99.90;;;;;;5016461;28;20017;-63
2021/04/02 02:16:45;;;;;;;6.57;4.50;;;11.60;99.90;;;;;;5018164;28;20128;-63
2021/04/02 02:19:19;;;;;;;11.10;5.07;;;11.60;99.90;;;;;;5014340;28;20092;-63
2021/04/02 02:21:47;;;;;;;10.32;4.88;;;11.60;99.90;;;;;;5016473;28;20031;-63
2021/04/02 02:24:14;;;;;;;8.88;4.70;;;11.60;99.90;;;;;;5010517;28;20017;-63
2021/04/02 02:26:41;;;;;;;12.45;5.20;;;11.60;99.90;;;;;;5018279;28;20402;-63
2021/04/02 02:29:08;;;;;;;16.08;5.05;;;11.50;99.90;;;;;;5007958;28;20030;-63
2021/04/02 02:31:34;;;;;;;8.07;4.63;;;11.70;99.90;;;;;;5020241;28;20022;-63
2021/04/02 02:34:02;;;;;;;9.07;4.03;;;11.70;99.90;;;;;;5018362;28;20105;-63
2021/04/02 02:36:29;;;;;;;11.75;4.80;;;11.70;99.90;;;;;;5021150;28;20109;-63
2021/04/02 02:38:56;;;;;;;8.75;4.53;;;11.80;99.90;;;;;;5013372;28;20095;-63
2021/04/02 02:41:26;;;;;;;10.93;5.25;;;11.70;99.90;;;;;;5021407;28;20109;-63
2021/04/02 02:43:53;;;;;;;9.23;4.65;;;11.60;99.90;;;;;;5013113;28;20129;-63
2021/04/02 02:46:20;;;;;;;13.63;4.57;;;11.60;99.90;;;;;;5023185;28;20537;-63
2021/04/02 02:48:47;;;;;;;10.02;4.95;;;11.50;99.90;;;;;;5017057;28;20109;-63
2021/04/02 02:51:14;;;;;;;15.30;5.07;;;11.60;99.90;;;;;;5023135;28;20038;-63
2021/04/02 02:53:41;;;;;;;10.82;5.03;;;11.60;99.90;;;;;;5006027;28;20509;-63
2021/04/02 02:56:08;;;;;;;10.23;4.82;;;11.70;99.90;;;;;;5024790;28;20033;-63
2021/04/02 02:58:37;;;;;;;15.13;5.22;;;11.70;99.90;;;;;;5013434;28;20108;-63
2021/04/02 03:01:04;;;;;;;7.55;4.75;;;11.60;99.90;;;;;;5026023;28;20029;-63
2021/04/02 03:03:30;;;;;;;12.98;4.75;;;11.50;99.90;;;;;;5009881;28;20043;-63
2021/04/02 03:05:59;;;;;;;8.10;4.50;;;11.40;99.90;;;;;;5029601;28;20269;-63
2021/04/02 03:08:30;;;;;;;8.32;4.68;;;11.60;99.90;;;;;;5009125;28;20113;-63
2021/04/02 03:10:58;;;;;;;10.38;5.25;;;11.30;99.90;;;;;;5031495;28;20117;-63
2021/04/02 03:13:25;;;;;;;7.68;4.80;;;11.40;99.90;;;;;;5008551;28;20066;-63
2021/04/02 03:15:58;;;;;;;9.38;5.03;;;11.50;99.90;;;;;;5032101;28;20021;-63
2021/04/02 03:18:25;;;;;;;8.38;5.57;;;11.40;99.90;;;;;;5007623;28;20066;-63
2021/04/02 03:20:53;;;;;;;5.65;5.05;;;11.40;99.90;;;;;;5028705;28;20096;-63
2021/04/02 03:23:20;;;;;;;6.97;5.28;;;11.30;99.90;;;;;;5017135;28;20025;-63
2021/04/02 03:25:49;;;;;;;12.13;5.55;;;11.30;99.90;;;;;;5029483;28;20034;-63
2021/04/02 03:28:17;;;;;;;15.77;5.95;;;11.60;99.90;;;;;;5013479;28;20513;-63
2021/04/02 03:30:43;;;;;;;7.40;5.10;;;11.40;99.90;;;;;;5028038;28;20462;-63
2021/04/02 03:33:20;;;;;;;13.65;5.60;;;11.50;99.90;;;;;;5013579;28;20096;-63
2021/04/02 03:35:46;;;;;;;14.40;5.03;;;11.50;99.90;;;;;;5026792;28;20406;-64
2021/04/02 03:38:15;;;;;;;7.82;5.32;;;11.50;99.90;;;;;;5012172;28;20017;-64
2021/04/02 03:40:42;;;;;;;7.13;5.15;;;11.30;99.90;;;;;;5025524;28;20120;-64
2021/04/02 03:43:08;;;;;;;10.93;5.72;;;11.50;99.90;;;;;;5011186;28;20017;-64
2021/04/02 03:45:36;;;;;;;9.45;5.93;;;11.30;99.90;;;;;;5024002;28;20087;-64
2021/04/02 03:48:05;;;;;;;8.77;5.80;;;11.20;99.90;;;;;;5011649;28;20020;-64
2021/04/02 03:50:37;;;;;;;11.48;5.80;;;11.40;99.90;;;;;;5022322;28;20124;-64
2021/04/02 03:53:13;;;;;;;14.32;6.13;;;11.40;99.90;;;;;;5001058;28;20101;-64
2021/04/02 03:55:39;;;;;;;;;;;11.30;99.90;;;;;;5008387;28;20095;-64
2021/04/02 03:58:07;;;;;;;12.02;6.45;;;11.50;99.90;;;;;;5004879;28;19956;-64
2021/04/02 04:00:43;;;;;;;12.25;6.13;;;11.40;99.90;;;;;;5006406;28;20029;-64
2021/04/02 04:03:10;;;;;;;12.05;5.38;;;11.30;99.90;;;;;;5005593;28;20486;-64
2021/04/02 04:05:37;;;;;;;11.00;5.93;;;11.30;99.90;;;;;;5010270;28;20037;-64
2021/04/02 04:08:03;;;;;;;9.48;5.38;;;11.40;99.90;;;;;;5005417;28;20026;-64
2021/04/02 04:10:29;;;;;;;16.67;5.75;;;11.40;99.90;;;;;;5005504;28;20030;-64
2021/04/02 04:12:58;;;;;;;12.95;5.80;;;11.20;99.90;;;;;;5005028;28;20026;-64
2021/04/02 04:15:26;;;;;;;13.80;5.80;;;11.20;99.90;;;;;;5004008;28;20518;-66
2021/04/02 04:17:53;;;;;;;10.52;5.60;;;11.20;99.90;;;;;;5005173;28;20037;-64
2021/04/02 04:20:20;;;;;;;11.93;6.00;;;11.40;99.90;;;;;;5003341;28;20473;-64
2021/04/02 04:22:48;;;;;;;12.65;6.38;;;11.40;99.90;;;;;;5004880;28;20398;-64
2021/04/02 04:25:14;;;;;;;11.43;5.70;;;11.40;99.90;;;;;;5002414;28;20382;-64
2021/04/02 04:27:44;;;;;;;10.38;5.95;;;11.30;99.90;;;;;;5004936;28;20030;-64
2021/04/02 04:30:15;;;;;;;8.70;5.88;;;11.30;99.90;;;;;;5001488;28;20026;-64
2021/04/02 04:32:41;;;;;;;9.00;5.70;;;11.10;99.90;;;;;;5004801;28;20085;-64
2021/04/02 04:35:14;;;;;;;14.38;6.35;;;11.10;99.90;;;;;;5000600;28;20101;-64
2021/04/02 04:37:41;;;;;;;11.00;5.63;;;11.20;99.90;;;;;;5005131;28;20052;-64
2021/04/02 04:40:09;;;;;;;11.63;5.65;;;11.20;99.90;;;;;;4999959;28;20100;-64
2021/04/02 04:42:38;;;;;;;14.70;5.90;;;11.20;99.90;;;;;;5000506;28;20029;-64
2021/04/02 04:45:06;;;;;;;8.38;5.60;;;11.30;99.90;;;;;;5002881;28;20094;-64
2021/04/02 04:47:32;;;;;;;13.05;6.22;;;11.20;99.90;;;;;;5014853;28;20177;-64
2021/04/02 04:49:58;;;;;;;13.15;6.10;;;11.20;99.90;;;;;;5002511;28;20129;-64
2021/04/02 04:52:28;;;;;;;10.27;5.75;;;11.20;99.90;;;;;;5003902;28;20018;-64
2021/04/02 04:54:54;;;;;;;7.90;5.63;;;11.30;99.90;;;;;;5004609;28;20037;-65
2021/04/02 04:57:21;;;;;;;9.35;6.45;;;11.20;99.90;;;;;;5004498;28;20499;-64
2021/04/02 04:59:50;;;;;;;11.20;5.10;;;11.30;99.90;;;;;;5003363;28;20049;-64
2021/04/02 05:02:18;;;;;;;11.55;6.50;;;11.30;99.90;;;;;;5004327;28;20118;-64
2021/04/02 05:04:45;;;;;;;10.18;6.40;;;11.30;99.90;;;;;;5002196;28;20514;-65
2021/04/02 05:07:12;;;;;;;11.25;6.53;;;11.30;99.90;;;;;;5003660;28;20046;-64
2021/04/02 05:09:41;;;;;;;9.13;5.82;;;11.30;99.90;;;;;;5001437;28;20494;-65
2021/04/02 05:12:09;;;;;;;12.85;6.75;;;11.30;99.90;;;;;;5006032;28;20022;-64
2021/04/02 05:14:37;;;;;;;12.77;6.05;;;11.20;99.90;;;;;;5007753;28;20044;-64
2021/04/02 05:17:04;;;;;;;10.60;5.88;;;11.20;99.90;;;;;;5005577;28;20076;-64
2021/04/02 05:19:33;;;;;;;11.95;6.72;;;11.10;99.90;;;;;;5009408;28;20036;-64
2021/04/02 05:21:58;;;;;;;10.13;6.57;;;11.10;99.90;;;;;;5007914;28;20032;-64
2021/04/02 05:24:24;;;;;;;8.57;5.95;;;11.20;99.90;;;;;;5003448;28;20026;-64
2021/04/02 05:26:50;;;;;;;11.15;6.35;;;11.20;99.90;;;;;;5007866;28;20105;-64
2021/04/02 05:29:16;;;;;;;8.30;5.80;;;11.00;99.90;;;;;;5010310;28;20541;-64
2021/04/02 05:31:43;;;;;;;14.45;6.65;;;11.10;99.90;;;;;;5007925;28;20041;-64
2021/04/02 05:34:09;;;;;;;12.20;6.55;;;11.00;99.90;;;;;;5001665;28;20475;-64
2021/04/02 05:36:35;;;;;;;10.93;5.90;;;11.00;99.90;;;;;;5007374;28;20084;-64
2021/04/02 05:39:01;;;;;;;11.02;6.25;;;10.90;99.90;;;;;;5009208;28;20022;-64
2021/04/02 05:41:44;;;;;;;11.95;6.47;;;11.00;99.90;;;;;;5006580;28;20056;-66
2021/04/02 05:44:11;;;;;;;11.75;6.55;;;11.30;99.90;;;;;;5004610;28;20018;-66
2021/04/02 05:46:39;;;;;;;12.20;6.35;;;10.90;99.90;;;;;;5005049;28;20035;-66
2021/04/02 05:49:06;;;;;;;10.90;6.03;;;11.20;99.90;;;;;;5006371;28;20038;-67
2021/04/02 05:51:32;;;;;;;19.02;7.43;;;11.00;99.90;;;;;;5004832;28;20030;-66
2021/04/02 05:53:59;;;;;;;11.35;6.28;;;11.20;99.90;;;;;;5005807;28;20036;-66
2021/04/02 05:56:26;;;;;;;14.60;6.60;;;11.10;99.90;;;;;;5003780;28;20015;-66
2021/04/02 05:58:53;;;;;;;10.00;6.40;;;11.10;99.90;;;;;;5006234;28;20084;-66
2021/04/02 06:01:19;;;;;;;17.80;7.43;;;11.00;99.90;;;;;;5007375;28;20022;-66
2021/04/02 06:03:45;;;;;;;10.23;6.28;;;11.10;99.90;;;;;;5005840;28;20026;-66
2021/04/02 06:06:13;;;;;;;19.70;6.50;;;11.00;99.90;;;;;;5000075;28;20066;-67
2021/04/02 06:08:43;;;;;;;14.98;6.38;;;11.10;99.90;;;;;;5005643;28;20041;-67
2021/04/02 06:11:09;;;;;;;21.02;6.70;;;11.20;99.90;;;;;;5007605;28;20522;-66
2021/04/02 06:13:35;;;;;;;11.95;6.78;;;11.10;99.90;;;;;;5005052;28;20025;-67
2021/04/02 06:16:01;;;;;;;7.60;6.85;;;11.00;99.90;;;;;;5008171;28;20021;-67
2021/04/02 06:18:27;;;;;;;13.20;6.82;;;11.10;99.90;;;;;;5004085;28;20021;-66
2021/04/02 06:20:55;;;;;;;8.70;6.53;;;11.10;99.90;;;;;;5005755;28;20048;-66
2021/04/02 06:23:25;;;;;;;16.38;6.50;;;11.10;99.90;;;;;;5004148;28;20018;-66
2021/04/02 06:26:01;;;;;;;8.18;6.40;;;11.20;99.90;;;;;;5006238;28;20097;-66
2021/04/02 06:28:39;;;;;;;13.75;6.93;;;11.30;99.90;;;;;;5003404;28;20026;-67
2021/04/02 06:31:16;;;;;;;10.57;6.45;;;11.30;99.90;;;;;;5008478;28;20049;-66
2021/04/02 06:33:50;;;;;;;11.90;7.30;;;11.30;99.90;;;;;;5007575;28;20021;-66
2021/04/02 06:36:18;;;;;;;9.40;7.18;;;11.20;99.90;;;;;;5005363;28;20540;-66
2021/04/02 06:38:48;;;;;;;11.93;7.20;;;11.30;99.90;;;;;;4994155;28;20034;-67
2021/04/02 06:41:15;;;;;;;12.43;7.53;;;11.50;99.90;;;;;;4995434;28;20097;-66
2021/04/02 06:43:46;;;;;;;17.73;7.15;;;11.50;99.90;;;;;;5006293;28;20025;-67
2021/04/02 06:46:22;;;;;;;10.10;6.90;;;11.50;99.90;;;;;;5006887;28;20052;-66
2021/04/02 06:48:50;;;;;;;14.43;7.55;;;11.60;99.90;;;;;;4998124;28;20052;-66
2021/04/02 06:51:20;;;;;;;10.07;6.63;;;11.80;99.90;;;;;;5003130;28;20079;-66
2021/04/02 06:53:53;;;;;;;13.95;6.90;;;11.80;99.90;;;;;;4999216;28;20022;-66
2021/04/02 06:56:20;;;;;;;12.43;7.80;;;11.90;99.90;;;;;;5004874;28;20026;-66
2021/04/02 06:58:47;;;;;;;16.55;7.55;;;11.80;99.90;;;;;;5005192;28;20497;-66
2021/04/02 07:01:15;;;;;;;14.13;7.78;;;11.80;99.90;;;;;;5006940;28;20026;-66
2021/04/02 07:03:45;;;;;;;12.07;7.72;;;11.80;99.90;;;;;;5002840;28;20789;-66
2021/04/02 07:06:13;;;;;;;12.20;7.75;;;11.90;99.90;;;;;;5005847;28;20044;-66
2021/04/02 07:08:41;;;;;;;16.80;7.28;;;11.90;99.90;;;;;;5002679;28;22001;-66
2021/04/02 07:11:09;;;;;;;15.48;7.38;;;12.00;99.90;;;;;;5007316;28;20021;-66
2021/04/02 07:13:38;;;;;;;16.73;7.40;;;12.10;99.90;;;;;;5005359;28;20386;-66
2021/04/02 07:16:04;;;;;;;18.02;7.38;;;12.10;99.90;;;;;;5007646;28;20029;-66
2021/04/02 07:18:30;;;;;;;17.02;6.78;;;12.30;99.90;;;;;;5005186;28;20495;-66
2021/04/02 07:20:56;;;;;;;15.23;7.30;;;12.40;99.90;;;;;;5008066;28;20057;-66
2021/04/02 07:23:22;;;;;;;21.02;7.80;;;12.30;99.90;;;;;;5005668;28;20111;-65
2021/04/02 07:25:48;;;;;;;12.50;6.75;;;12.40;99.90;;;;;;5009124;28;20157;-65
2021/04/02 07:28:14;;;;;;;8.18;6.38;;;12.50;99.90;;;;;;5004676;28;20587;-66
2021/04/02 07:30:43;;;;;;;10.40;6.90;;;12.50;99.90;;;;;;5008799;28;20656;-66
2021/04/02 07:33:11;;;;;;;9.15;6.63;;;12.80;99.90;;;;;;5016239;28;20013;-65
2021/04/02 07:35:39;;;;;;;12.23;5.90;;;12.90;99.90;;;;;;5024282;28;20044;-65
2021/04/02 07:38:15;;;;;;;18.15;6.43;;;13.00;99.90;;;;;;5012693;28;20032;-66
2021/04/02 07:40:41;;;;;;;;;;;13.20;99.90;;;;;;5019833;28;20021;-66
2021/04/02 07:43:08;;;;;;;8.23;5.60;;;13.30;99.90;;;;;;5000728;28;19910;-66
2021/04/02 07:45:36;;;;;;;7.65;5.20;;;13.40;99.90;;;;;;5028612;28;20271;-66
2021/04/02 07:48:22;;;;;;;12.05;4.93;;;13.60;99.90;;;;;;5013461;28;20163;-65
2021/04/02 07:50:50;;;;;;;;;;;13.60;99.90;;;;;;5004431;28;20482;-66
2021/04/02 07:53:19;;;;;;;7.05;4.40;;;13.70;99.90;;;;;;5011675;28;19916;-65
2021/04/02 07:56:09;;;;;;;8.13;4.72;;;13.90;99.90;;;;;;4999963;28;20498;-66
2021/04/02 07:58:45;;;;;;;7.95;4.20;;;14.00;99.90;;;;;;4994802;28;20033;-66
2021/04/02 08:01:10;;;;;;;9.35;4.50;;;14.10;99.90;;;;;;4997323;28;20104;-65
2021/04/02 08:03:36;;;;;;;8.93;3.45;;;14.00;99.90;;;;;;5003325;28;20077;-67
2021/04/02 08:06:27;;;;;;;8.20;4.05;;;14.10;99.90;;;;;;5015425;28;20037;-66
2021/04/02 08:08:53;;;;;;;16.60;4.47;;;14.20;99.90;;;;;;5008124;28;20222;-65
2021/04/02 08:11:25;;;;;;;11.45;3.85;;;14.20;99.90;;;;;;5027330;28;20042;-66
2021/04/02 08:14:05;;;;;;;11.80;4.05;;;14.20;99.90;;;;;;5016000;28;20128;-66
2021/04/02 08:16:31;;;;;;;18.02;3.92;;;14.30;99.90;;;;;;5024715;28;20026;-65
2021/04/02 08:19:10;;;;;;;7.38;3.35;;;14.60;99.90;;;;;;5015525;28;20034;-66
2021/04/02 08:21:57;;;;;;;9.27;3.72;;;14.70;99.90;;;;;;5022867;28;20042;-65
2021/04/02 08:24:28;;;;;;;7.43;3.92;;;14.70;99.90;;;;;;5005399;28;20491;-66
2021/04/02 08:26:55;;;;;;;9.55;3.80;;;14.60;99.90;;;;;;5006233;28;20430;-65
2021/04/02 08:29:23;;;;;;;11.38;3.83;;;14.80;99.90;;;;;;5000854;28;20060;-66
2021/04/02 08:31:54;;;;;;;15.27;4.13;;;15.00;99.90;;;;;;5000308;28;20017;-66
2021/04/02 08:34:22;;;;;;;8.63;3.65;;;15.00;99.90;;;;;;4998730;28;20040;-66
2021/04/02 08:36:50;;;;;;;11.55;3.83;;;15.30;99.90;;;;;;5006147;28;20072;-66
2021/04/02 08:39:21;;;;;;;9.18;3.47;;;15.40;99.90;;;;;;4995956;28;20437;-65
2021/04/02 08:41:47;;;;;;;11.18;3.78;;;15.30;99.90;;;;;;5007211;28;20398;-66
2021/04/02 08:44:12;;;;;;;4.35;3.13;;;15.40;99.90;;;;;;5008158;28;20026;-65
2021/04/02 08:46:44;;;;;;;11.82;3.90;;;15.40;99.90;;;;;;5007832;28;20029;-65
2021/04/02 08:49:15;;;;;;;12.70;3.40;;;15.50;99.90;;;;;;5008946;28;20026;-65
2021/04/02 08:51:47;;;;;;;6.13;3.42;;;15.60;99.90;;;;;;5006773;28;20105;-65
2021/04/02 08:54:17;;;;;;;11.07;3.90;;;15.50;99.90;;;;;;5020535;28;20040;-66
2021/04/02 08:56:43;;;;;;;17.27;3.10;;;15.70;99.90;;;;;;5024017;28;20018;-65
2021/04/02 08:59:11;;;;;;;7.90;2.88;;;15.90;99.90;;;;;;5008954;28;20060;-65
2021/04/02 09:01:48;;;;;;;9.50;3.40;;;16.10;99.90;;;;;;5008284;28;20018;-65
2021/04/02 09:04:16;;;;;;;15.90;3.70;;;16.10;99.90;;;;;;5008959;28;20026;-64
2021/04/02 09:06:43;;;;;;;11.65;3.65;;;15.90;99.90;;;;;;5006819;28;20473;-65
2021/04/02 09:09:20;;;;;;;5.60;2.80;;;16.20;99.90;;;;;;5012231;28;20044;-65
2021/04/02 09:11:49;;;;;;;13.65;3.17;;;16.40;99.90;;;;;;5014251;28;20022;-64
2021/04/02 09:14:15;;;;;;;11.52;3.40;;;16.40;99.90;;;;;;5009081;28;20058;-64
2021/04/02 09:16:44;;;;;;;9.68;2.75;;;16.60;99.90;;;;;;5007387;28;20084;-64
2021/04/02 09:19:11;;;;;;;10.05;3.53;;;16.50;99.90;;;;;;5006588;28;20018;-65
2021/04/02 09:21:37;;;;;;;10.20;3.28;;;16.80;99.90;;;;;;5006499;28;20034;-65
2021/04/02 09:24:04;;;;;;;7.82;2.90;;;16.90;99.90;;;;;;5009219;28;20026;-65
2021/04/02 09:26:35;;;;;;;12.02;3.47;;;17.30;99.90;;;;;;5008690;28;20517;-64
2021/04/02 09:29:02;;;;;;;10.13;3.55;;;17.40;99.90;;;;;;5006834;28;20026;-65
2021/04/02 09:31:38;;;;;;;6.78;3.25;;;17.50;99.90;;;;;;5004965;28;20088;-64
2021/04/02 09:34:06;;;;;;;8.13;3.47;;;17.60;99.90;;;;;;5011385;28;20534;-64
2021/04/02 09:36:33;;;;;;;8.90;2.90;;;17.70;99.90;;;;;;5008482;28;20097;-64
2021/04/02 09:39:21;;;;;;;7.13;2.95;;;17.60;99.90;;;;;;5013611;28;20121;-64
2021/04/02 09:42:06;;;;;;;7.55;3.63;;;18.00;99.90;;;;;;5004293;28;20079;-64
2021/04/02 09:44:36;;;;;;;5.25;2.85;;;17.80;99.90;;;;;;5009503;28;20627;-64
2021/04/02 09:47:12;;;;;;;9.10;3.15;;;18.00;99.90;;;;;;5003101;28;20053;-64
2021/04/02 09:49:37;;;;;;;16.42;3.53;;;17.70;99.90;;;;;;5003302;28;20109;-64
2021/04/02 09:52:05;;;;;;;8.27;3.13;;;18.20;99.90;;;;;;5006529;28;20504;-64
2021/04/02 09:54:32;;;;;;;13.68;3.65;;;18.30;99.90;;;;;;5002575;28;20025;-64
2021/04/02 09:57:03;;;;;;;6.93;2.97;;;18.10;99.90;;;;;;5007590;28;20037;-64
2021/04/02 09:59:29;;;;;;;5.80;2.95;;;17.90;99.90;;;;;;5001681;28;20029;-63
2021/04/02 10:01:55;;;;;;;7.30;2.83;;;18.50;99.90;;;;;;5007577;28;20032;-64
2021/04/02 10:04:22;;;;;;;5.20;2.80;;;18.70;99.90;;;;;;5010035;28;20013;-64
2021/04/02 10:06:48;;;;;;;8.70;2.95;;;18.90;99.90;;;;;;5006824;28;20103;-65
2021/04/02 10:09:14;;;;;;;8.35;2.75;;;19.10;99.90;;;;;;5014788;28;20029;-65
2021/04/02 10:11:42;;;;;;;10.18;2.92;;;19.20;99.90;;;;;;5000193;28;20026;-64
2021/04/02 10:14:08;;;;;;;13.15;3.00;;;19.10;99.90;;;;;;5000553;28;20037;-66
2021/04/02 10:16:34;;;;;;;6.57;2.63;;;19.10;99.90;;;;;;5006104;28;20026;-65
2021/04/02 10:19:02;;;;;;;12.75;2.92;;;19.00;99.90;;;;;;5005319;28;20101;-65
2021/04/02 10:21:28;;;;;;;8.85;2.92;;;18.60;99.90;;;;;;4997476;28;20052;-66
2021/04/02 10:23:53;;;;;;;6.03;3.10;;;18.90;99.90;;;;;;4996276;28;20026;-66
2021/04/02 10:26:20;;;;;;;9.60;3.13;;;19.30;99.90;;;;;;5005272;28;20553;-66
2021/04/02 10:28:46;;;;;;;5.00;2.53;;;19.40;99.90;;;;;;5000604;28;20045;-66
2021/04/02 10:31:13;;;;;;;6.70;2.90;;;19.30;99.90;;;;;;5005122;28;20038;-66
2021/04/02 10:33:38;;;;;;;6.30;2.97;;;19.00;99.90;;;;;;5002054;28;20483;-66
2021/04/02 10:36:05;;;;;;;6.47;2.80;;;18.80;99.90;;;;;;5006158;28;20072;-66
2021/04/02 10:38:31;;;;;;;6.15;2.95;;;18.90;99.90;;;;;;5001972;28;20018;-66
2021/04/02 10:40:57;;;;;;;8.80;2.90;;;18.40;99.90;;;;;;5006958;28;20473;-66
2021/04/02 10:43:23;;;;;;;5.93;2.40;;;18.40;99.90;;;;;;5004091;28;20021;-66
2021/04/02 10:45:49;;;;;;;6.30;2.60;;;18.60;99.90;;;;;;5009697;28;20045;-66
2021/04/02 10:48:15;;;;;;;4.18;2.40;;;19.00;99.90;;;;;;5006953;28;20037;-66
2021/04/02 10:50:42;;;;;;;8.82;2.22;;;19.50;99.90;;;;;;5007052;28;20042;-66
2021/04/02 10:53:10;;;;;;;8.02;2.45;;;19.60;99.90;;;;;;5003169;28;20029;-66
2021/04/02 10:55:36;;;;;;;8.02;2.80;;;20.00;99.90;;;;;;5007949;28;20486;-66
2021/04/02 10:58:05;;;;;;;7.75;2.60;;;19.50;99.90;;;;;;5003130;28;20076;-66
2021/04/02 11:00:31;;;;;;;5.20;2.40;;;19.00;99.90;;;;;;5008855;28;20113;-66
2021/04/02 11:02:57;;;;;;;5.15;2.75;;;18.90;99.90;;;;;;5006685;28;20482;-66
2021/04/02 11:05:23;;;;;;;10.10;2.72;;;19.50;99.90;;;;;;5007516;28;20101;-66
2021/04/02 11:07:49;;;;;;;9.10;3.25;;;20.20;99.90;;;;;;4999914;28;20043;-66
2021/04/02 11:10:15;;;;;;;5.43;2.50;;;20.50;99.90;;;;;;5004296;28;20072;-66
2021/04/02 11:12:41;;;;;;;5.55;2.53;;;21.10;99.90;;;;;;4999954;28;20081;-66
2021/04/02 11:15:12;;;;;;;10.98;2.58;;;21.00;99.90;;;;;;5002092;28;20034;-66
2021/04/02 11:17:42;;;;;;;10.35;2.65;;;20.90;98.90;;;;;;5003840;28;20569;-66
2021/04/02 11:20:13;;;;;;;4.60;2.50;;;20.90;97.40;;;;;;4995193;28;20076;-66
2021/04/02 11:22:39;;;;;;;2.90;2.60;;;20.60;98.70;;;;;;5007203;28;20030;-66
2021/04/02 11:25:06;;;;;;;11.43;3.00;;;20.50;98.10;;;;;;5014312;28;20025;-66
2021/04/02 11:27:32;;;;;;;10.57;2.15;;;21.00;98.90;;;;;;5010665;28;20418;-66
2021/04/02 11:29:58;;;;;;;9.02;2.80;;;20.90;97.10;;;;;;5026516;28;20037;-66
2021/04/02 11:32:23;;;;;;;6.68;2.30;;;20.60;97.70;;;;;;5009629;28;20030;-66
2021/04/02 11:34:49;;;;;;;5.18;2.60;;;21.00;97.50;;;;;;5010971;28;20514;-67
2021/04/02 11:37:16;;;;;;;5.22;2.08;;;21.00;97.00;;;;;;5008437;28;20029;-66
2021/04/02 11:39:42;;;;;;;4.10;2.15;;;20.60;95.90;;;;;;5013295;28;20502;-66
2021/04/02 11:42:08;;;;;;;5.32;2.30;;;20.50;96.00;;;;;;5017393;28;20014;-65
2021/04/02 11:44:34;;;;;;;4.82;2.25;;;20.40;96.70;;;;;;5015689;28;20383;-66
2021/04/02 11:47:00;;;;;;;5.15;2.30;;;20.20;96.70;;;;;;5020356;28;20018;-66
2021/04/02 11:49:26;;;;;;;4.50;1.95;;;19.90;96.60;;;;;;5014111;28;20504;-66
2021/04/02 11:51:51;;;;;;;2.80;2.00;;;19.90;96.20;;;;;;5019650;28;20034;-66
2021/04/02 11:54:17;;;;;;;3.03;1.92;;;19.50;96.80;;;;;;5007294;28;20032;-64
2021/04/02 11:56:43;;;;;;;4.68;2.03;;;20.00;96.30;;;;;;5022339;28;20104;-64
2021/04/02 11:59:08;;;;;;;3.88;2.47;;;19.50;96.70;;;;;;5004569;28;20016;-65
2021/04/02 12:01:34;;;;;;;4.35;2.30;;;18.90;96.70;;;;;;5020776;28;20022;-64
2021/04/02 12:04:00;;;;;;;2.33;1.77;;;18.70;97.50;;;;;;4997104;28;20034;-64
2021/04/02 12:06:26;;;;;;;4.00;2.00;;;18.40;96.90;;;;;;5007825;28;20042;-64
2021/04/02 12:08:51;;;;;;;5.15;2.50;;;18.50;97.70;;;;;;5002209;28;20037;-64
2021/04/02 12:11:17;;;;;;;5.60;2.47;;;18.50;97.90;;;;;;5015422;28;20061;-64
2021/04/02 12:13:43;;;;;;;17.33;2.55;;;18.70;97.40;;;;;;5012548;28;20033;-64
2021/04/02 12:16:09;;;;;;;4.07;1.90;;;18.80;97.50;;;;;;5011089;28;20475;-64
2021/04/02 12:18:34;;;;;;;7.57;2.10;;;18.70;96.80;;;;;;5003335;28;20105;-64
2021/04/02 12:21:00;;;;;;;14.02;2.38;;;18.40;97.50;;;;;;5008047;28;20534;-64
2021/04/02 12:23:26;;;;;;;8.00;2.28;;;18.80;97.60;;;;;;4999956;28;20030;-64
2021/04/02 12:25:52;;;;;;;5.55;2.30;;;19.00;97.30;;;;;;5003151;28;20060;-64
2021/04/02 12:28:17;;;;;;;6.32;2.40;;;19.10;97.30;;;;;;4995816;28;20061;-64
2021/04/02 12:30:43;;;;;;;6.10;2.30;;;19.50;97.50;;;;;;5007613;28;20041;-64
2021/04/02 12:33:09;;;;;;;5.55;2.00;;;19.70;97.10;;;;;;5005375;28;20030;-64
2021/04/02 12:35:36;;;;;;;5.85;2.60;;;20.00;96.80;;;;;;5005268;28;20034;-64
2021/04/02 12:38:08;;;;;;;6.85;2.20;;;20.60;96.20;;;;;;5005093;28;20022;-65
2021/04/02 12:40:33;;;;;;;12.82;2.42;;;21.30;97.20;;;;;;5004944;28;20120;-64
2021/04/02 12:42:59;;;;;;;7.32;2.25;;;22.00;95.70;;;;;;5004833;28;20096;-64
2021/04/02 12:45:25;;;;;;;7.90;2.20;;;22.30;94.70;;;;;;5003942;28;20036;-65
2021/04/02 12:47:51;;;;;;;4.05;2.15;;;22.50;94.80;;;;;;5004967;28;20026;-65
2021/04/02 12:50:22;;;;;;;4.47;2.28;;;21.80;94.40;;;;;;5003252;28;20030;-65